Aérodrome :
LOGIN :

S'inscrire | Disclaimer

   EN    FR    IT 

 










Légende :    VFR   VFR Marginal   IFR   IFR Intensif   IFR Très Intensif
Visi : 
Plafond : 
>= 8 km
>= 3000ft
5 à 8 km
1000 à 3000 ft
1500m à 5 km
500 à 1000 ft
800 à 1500m
200 à 500 ft
< 800m
< 200 ft
Symboles :   Orages  Brouillard  Fortes neiges  Fortes précipitations  Vent > 20 kt
SIGMETs :   Divers  Orages  Givrage  Turbulence  Onde Orograph.  Cendres Volcan.







- Altitude de l'aérodrome : 102 ft
- Code IATA : CNG
- Voir les cartes d'approche


LFBG - Cognac

DERNIER METAR :
  • 220630Z AUTO VRB02KT 0350 0300 R23/0400N FG VV/// 11/11 Q1020 BECMG 9999 FG SCT020

METARs EXPIRÉS :
  • 220600Z AUTO VRB03KT 0300 0250 R23/0300N FG VV/// 10/10 Q1020 BECMG 9999 FG SCT020
  • 220530Z AUTO 08002KT 0500 0450 R23/0600D FG VV/// 09/09 Q1020 BECMG 9999 FG SCT020
  • 220500Z AUTO 00000KT 0200 R23/0200N FG VV/// 10/10 Q1020 BECMG 0400 FG BKN020
  • 220430Z AUTO 00000KT 0450 0250 R23/0250N FG VV/// 09/09 Q1020 BECMG BKN020
  • 220400Z AUTO 00000KT 0400 0300 R23/0350N FG VV/// 09/09 Q1019 BECMG BKN020

TAF TAF LFBG
Valide du 21 à 09h jusqu'au 22 à 09h UTC


210800Z 2109/2209 VRB02KT 0400 FG VV///
BECMG 2109/2110 9999 NSW SCT010
BECMG 2111/2113 BKN020
TEMPO 2113/2118 -SHRA FEW020CB SCT020TCU
BECMG 2200/2202 0400 FG
BECMG 2207/2209 9999 SCT020
Pas de NOTAMs connus pour ce terrain.



MET'MAP, la Météo Aéronautique d'un coup d'oeil ! - Copyright ORBIFLY Décembre 2007 - Disclaimer

ORBIFLY MET'MAP TEAM :

Programmation & Développement : Alexandra Zaïnal
Conception & Développement : Baudouin d'Aumeries
Co-Programmation & Développement : Marc-Olivier Méhu
Soutien technique & logistique : Manuel Goepfert

Contact : metmap@orbifly.com




SOURCES & CREDITS :

   NOAA